sensor_id;sensor_type;location;lat;lon;timestamp;temperature;humidity
8715;DHT22;4394;51.208;8.904;2024-02-28T00:00:18;3.60;99.90
8715;DHT22;4394;51.208;8.904;2024-02-28T00:03:07;3.50;99.90
8715;DHT22;4394;51.208;8.904;2024-02-28T00:05:55;3.50;99.90
8715;DHT22;4394;51.208;8.904;2024-02-28T00:08:44;3.50;99.90
8715;DHT22;4394;51.208;8.904;2024-02-28T00:11:32;3.50;99.90
8715;DHT22;4394;51.208;8.904;2024-02-28T00:14:20;3.40;99.90
8715;DHT22;4394;51.208;8.904;2024-02-28T00:17:08;3.40;99.90
8715;DHT22;4394;51.208;8.904;2024-02-28T00:19:58;3.40;99.90
8715;DHT22;4394;51.208;8.904;2024-02-28T00:22:46;3.40;99.90
8715;DHT22;4394;51.208;8.904;2024-02-28T00:25:34;3.40;99.90
8715;DHT22;4394;51.208;8.904;2024-02-28T00:28:22;3.40;99.90
8715;DHT22;4394;51.208;8.904;2024-02-28T00:31:10;3.40;99.90
8715;DHT22;4394;51.208;8.904;2024-02-28T00:33:59;3.30;99.90
8715;DHT22;4394;51.208;8.904;2024-02-28T00:36:48;3.40;99.90
8715;DHT22;4394;51.208;8.904;2024-02-28T00:39:43;3.30;99.90
8715;DHT22;4394;51.208;8.904;2024-02-28T00:42:31;3.20;99.90
8715;DHT22;4394;51.208;8.904;2024-02-28T00:45:19;3.20;99.90
8715;DHT22;4394;51.208;8.904;2024-02-28T00:48:07;3.20;99.90
8715;DHT22;4394;51.208;8.904;2024-02-28T00:50:56;3.20;99.90
8715;DHT22;4394;51.208;8.904;2024-02-28T00:53:45;3.20;99.90
8715;DHT22;4394;51.208;8.904;2024-02-28T00:56:33;3.20;99.90
8715;DHT22;4394;51.208;8.904;2024-02-28T00:59:21;3.20;99.90
8715;DHT22;4394;51.208;8.904;2024-02-28T01:02:09;3.10;99.90
8715;DHT22;4394;51.208;8.904;2024-02-28T01:04:57;3.10;99.90
8715;DHT22;4394;51.208;8.904;2024-02-28T01:07:45;3.10;99.90
8715;DHT22;4394;51.208;8.904;2024-02-28T01:10:34;3.10;99.90
8715;DHT22;4394;51.208;8.904;2024-02-28T01:13:23;3.10;99.90
8715;DHT22;4394;51.208;8.904;2024-02-28T01:16:11;3.20;99.90
8715;DHT22;4394;51.208;8.904;2024-02-28T01:18:59;3.20;99.90
8715;DHT22;4394;51.208;8.904;2024-02-28T01:21:47;3.10;99.90
8715;DHT22;4394;51.208;8.904;2024-02-28T01:24:35;3.10;99.90
8715;DHT22;4394;51.208;8.904;2024-02-28T01:27:25;3.20;99.90
8715;DHT22;4394;51.208;8.904;2024-02-28T01:30:13;3.10;99.90
8715;DHT22;4394;51.208;8.904;2024-02-28T01:33:01;3.10;99.90
8715;DHT22;4394;51.208;8.904;2024-02-28T01:35:49;3.10;99.90
8715;DHT22;4394;51.208;8.904;2024-02-28T01:38:37;3.10;99.90
8715;DHT22;4394;51.208;8.904;2024-02-28T01:41:26;3.10;99.90
8715;DHT22;4394;51.208;8.904;2024-02-28T01:44:15;3.10;99.90
8715;DHT22;4394;51.208;8.904;2024-02-28T01:47:03;3.10;99.90
8715;DHT22;4394;51.208;8.904;2024-02-28T01:49:51;3.10;99.90
8715;DHT22;4394;51.208;8.904;2024-02-28T01:52:41;3.10;99.90
8715;DHT22;4394;51.208;8.904;2024-02-28T01:55:29;3.20;99.90
8715;DHT22;4394;51.208;8.904;2024-02-28T01:58:18;3.20;99.90
8715;DHT22;4394;51.208;8.904;2024-02-28T02:01:07;3.20;99.90
8715;DHT22;4394;51.208;8.904;2024-02-28T02:03:57;3.20;99.90
8715;DHT22;4394;51.208;8.904;2024-02-28T02:06:45;3.10;99.90
8715;DHT22;4394;51.208;8.904;2024-02-28T02:09:34;3.10;99.90
8715;DHT22;4394;51.208;8.904;2024-02-28T02:12:22;3.00;99.90
8715;DHT22;4394;51.208;8.904;2024-02-28T02:15:11;3.00;99.90
8715;DHT22;4394;51.208;8.904;2024-02-28T02:18:00;3.00;99.90
8715;DHT22;4394;51.208;8.904;2024-02-28T02:20:50;3.00;99.90
8715;DHT22;4394;51.208;8.904;2024-02-28T02:23:42;3.00;99.90
8715;DHT22;4394;51.208;8.904;2024-02-28T02:26:30;3.00;99.90
8715;DHT22;4394;51.208;8.904;2024-02-28T02:29:18;3.00;99.90
8715;DHT22;4394;51.208;8.904;2024-02-28T02:32:06;3.00;99.90
8715;DHT22;4394;51.208;8.904;2024-02-28T02:34:55;3.00;99.90
8715;DHT22;4394;51.208;8.904;2024-02-28T02:37:43;3.00;99.90
8715;DHT22;4394;51.208;8.904;2024-02-28T02:40:34;2.90;99.90
8715;DHT22;4394;51.208;8.904;2024-02-28T02:43:22;2.80;99.90
8715;DHT22;4394;51.208;8.904;2024-02-28T02:46:10;2.80;99.90
8715;DHT22;4394;51.208;8.904;2024-02-28T02:48:58;2.80;99.90
8715;DHT22;4394;51.208;8.904;2024-02-28T02:51:46;2.80;99.90
8715;DHT22;4394;51.208;8.904;2024-02-28T02:54:34;2.80;99.90
8715;DHT22;4394;51.208;8.904;2024-02-28T02:57:24;2.70;99.90
8715;DHT22;4394;51.208;8.904;2024-02-28T03:00:13;2.70;99.90
8715;DHT22;4394;51.208;8.904;2024-02-28T03:03:01;2.70;99.90
8715;DHT22;4394;51.208;8.904;2024-02-28T03:05:49;2.60;99.90
8715;DHT22;4394;51.208;8.904;2024-02-28T03:08:37;2.60;99.90
8715;DHT22;4394;51.208;8.904;2024-02-28T03:11:25;2.60;99.90
8715;DHT22;4394;51.208;8.904;2024-02-28T03:14:14;2.60;99.90
8715;DHT22;4394;51.208;8.904;2024-02-28T03:17:03;2.60;99.90
8715;DHT22;4394;51.208;8.904;2024-02-28T03:19:51;2.50;99.90
8715;DHT22;4394;51.208;8.904;2024-02-28T03:22:39;2.50;99.90
8715;DHT22;4394;51.208;8.904;2024-02-28T03:25:27;2.50;99.90
8715;DHT22;4394;51.208;8.904;2024-02-28T03:28:15;2.40;99.90
8715;DHT22;4394;51.208;8.904;2024-02-28T03:31:05;2.40;99.90
8715;DHT22;4394;51.208;8.904;2024-02-28T03:33:53;2.50;99.90
8715;DHT22;4394;51.208;8.904;2024-02-28T03:36:41;2.50;99.90
8715;DHT22;4394;51.208;8.904;2024-02-28T03:39:29;2.50;99.90
8715;DHT22;4394;51.208;8.904;2024-02-28T03:42:17;2.50;99.90
8715;DHT22;4394;51.208;8.904;2024-02-28T03:45:06;2.50;99.90
8715;DHT22;4394;51.208;8.904;2024-02-28T03:47:55;2.60;99.90
8715;DHT22;4394;51.208;8.904;2024-02-28T03:50:44;2.60;99.90
8715;DHT22;4394;51.208;8.904;2024-02-28T03:53:32;2.50;99.90
8715;DHT22;4394;51.208;8.904;2024-02-28T03:56:23;2.50;99.90
8715;DHT22;4394;51.208;8.904;2024-02-28T03:59:12;2.40;99.90
8715;DHT22;4394;51.208;8.904;2024-02-28T04:02:00;2.30;99.90
8715;DHT22;4394;51.208;8.904;2024-02-28T04:04:49;2.30;99.90
8715;DHT22;4394;51.208;8.904;2024-02-28T04:07:37;2.20;99.90
8715;DHT22;4394;51.208;8.904;2024-02-28T04:10:25;2.20;99.90
8715;DHT22;4394;51.208;8.904;2024-02-28T04:13:13;2.10;99.90
8715;DHT22;4394;51.208;8.904;2024-02-28T04:16:02;2.00;99.90
8715;DHT22;4394;51.208;8.904;2024-02-28T04:18:51;2.00;99.90
8715;DHT22;4394;51.208;8.904;2024-02-28T04:21:41;2.00;99.90
8715;DHT22;4394;51.208;8.904;2024-02-28T04:24:29;2.00;99.90
8715;DHT22;4394;51.208;8.904;2024-02-28T04:27:17;1.90;99.90
8715;DHT22;4394;51.208;8.904;2024-02-28T04:30:06;1.90;99.90
8715;DHT22;4394;51.208;8.904;2024-02-28T04:32:54;1.90;99.90
8715;DHT22;4394;51.208;8.904;2024-02-28T04:35:42;1.90;99.90
8715;DHT22;4394;51.208;8.904;2024-02-28T04:38:31;2.10;99.90
8715;DHT22;4394;51.208;8.904;2024-02-28T04:41:20;2.10;99.90
8715;DHT22;4394;51.208;8.904;2024-02-28T04:44:08;2.10;99.90
8715;DHT22;4394;51.208;8.904;2024-02-28T04:46:56;2.10;99.90
8715;DHT22;4394;51.208;8.904;2024-02-28T04:49:44;2.10;99.90
8715;DHT22;4394;51.208;8.904;2024-02-28T04:52:32;2.10;99.90
8715;DHT22;4394;51.208;8.904;2024-02-28T04:55:22;2.10;99.90
8715;DHT22;4394;51.208;8.904;2024-02-28T04:58:10;2.20;99.90
8715;DHT22;4394;51.208;8.904;2024-02-28T05:00:58;2.20;99.90
8715;DHT22;4394;51.208;8.904;2024-02-28T05:03:46;2.10;99.90
8715;DHT22;4394;51.208;8.904;2024-02-28T05:06:35;2.10;99.90
8715;DHT22;4394;51.208;8.904;2024-02-28T05:09:26;2.00;99.90
8715;DHT22;4394;51.208;8.904;2024-02-28T05:12:16;2.00;99.90
8715;DHT22;4394;51.208;8.904;2024-02-28T05:15:05;2.00;99.90
8715;DHT22;4394;51.208;8.904;2024-02-28T05:17:54;1.90;99.90
8715;DHT22;4394;51.208;8.904;2024-02-28T05:20:42;2.00;99.90
8715;DHT22;4394;51.208;8.904;2024-02-28T05:23:30;2.00;99.90
8715;DHT22;4394;51.208;8.904;2024-02-28T05:26:18;2.00;99.90
8715;DHT22;4394;51.208;8.904;2024-02-28T05:29:07;1.90;99.90
8715;DHT22;4394;51.208;8.904;2024-02-28T05:31:55;1.90;99.90
8715;DHT22;4394;51.208;8.904;2024-02-28T05:34:45;1.90;99.90
8715;DHT22;4394;51.208;8.904;2024-02-28T05:37:33;1.90;99.90
8715;DHT22;4394;51.208;8.904;2024-02-28T05:40:22;1.90;99.90
8715;DHT22;4394;51.208;8.904;2024-02-28T05:43:11;2.00;99.90
8715;DHT22;4394;51.208;8.904;2024-02-28T05:46:00;2.00;99.90
8715;DHT22;4394;51.208;8.904;2024-02-28T05:48:48;2.00;99.90
8715;DHT22;4394;51.208;8.904;2024-02-28T05:51:36;2.00;99.90
8715;DHT22;4394;51.208;8.904;2024-02-28T05:54:24;2.00;99.90
8715;DHT22;4394;51.208;8.904;2024-02-28T05:57:16;1.90;99.90
8715;DHT22;4394;51.208;8.904;2024-02-28T06:00:05;1.90;99.90
8715;DHT22;4394;51.208;8.904;2024-02-28T06:02:58;1.90;99.90
8715;DHT22;4394;51.208;8.904;2024-02-28T06:05:46;1.80;99.90
8715;DHT22;4394;51.208;8.904;2024-02-28T06:08:38;1.80;99.90
8715;DHT22;4394;51.208;8.904;2024-02-28T06:11:26;1.70;99.90
8715;DHT22;4394;51.208;8.904;2024-02-28T06:14:14;1.60;99.90
8715;DHT22;4394;51.208;8.904;2024-02-28T06:17:02;1.60;99.90
8715;DHT22;4394;51.208;8.904;2024-02-28T06:19:51;1.60;99.90
8715;DHT22;4394;51.208;8.904;2024-02-28T06:22:40;1.50;99.90
8715;DHT22;4394;51.208;8.904;2024-02-28T06:25:28;1.50;99.90
8715;DHT22;4394;51.208;8.904;2024-02-28T06:28:16;1.60;99.90
8715;DHT22;4394;51.208;8.904;2024-02-28T06:31:04;1.60;99.90
8715;DHT22;4394;51.208;8.904;2024-02-28T06:33:52;1.60;99.90
8715;DHT22;4394;51.208;8.904;2024-02-28T06:36:42;1.60;99.90
8715;DHT22;4394;51.208;8.904;2024-02-28T06:39:30;1.60;99.90
8715;DHT22;4394;51.208;8.904;2024-02-28T06:42:18;1.60;99.90
8715;DHT22;4394;51.208;8.904;2024-02-28T06:45:08;1.60;99.90
8715;DHT22;4394;51.208;8.904;2024-02-28T06:47:56;1.60;99.90
8715;DHT22;4394;51.208;8.904;2024-02-28T06:50:44;1.50;99.90
8715;DHT22;4394;51.208;8.904;2024-02-28T06:53:34;1.50;99.90
8715;DHT22;4394;51.208;8.904;2024-02-28T06:56:22;1.50;99.90
8715;DHT22;4394;51.208;8.904;2024-02-28T06:59:10;1.50;99.90
8715;DHT22;4394;51.208;8.904;2024-02-28T07:01:58;1.70;99.90
8715;DHT22;4394;51.208;8.904;2024-02-28T07:04:46;1.50;99.90
8715;DHT22;4394;51.208;8.904;2024-02-28T07:07:34;1.50;99.90
8715;DHT22;4394;51.208;8.904;2024-02-28T07:10:24;1.50;99.90
8715;DHT22;4394;51.208;8.904;2024-02-28T07:13:12;1.60;99.90
8715;DHT22;4394;51.208;8.904;2024-02-28T07:16:00;1.50;99.90
8715;DHT22;4394;51.208;8.904;2024-02-28T07:18:48;1.50;99.90
8715;DHT22;4394;51.208;8.904;2024-02-28T07:21:36;1.60;99.90
8715;DHT22;4394;51.208;8.904;2024-02-28T07:24:25;1.60;99.90
8715;DHT22;4394;51.208;8.904;2024-02-28T07:27:14;1.70;99.90
8715;DHT22;4394;51.208;8.904;2024-02-28T07:30:04;1.60;99.90
8715;DHT22;4394;51.208;8.904;2024-02-28T07:32:53;1.60;99.90
8715;DHT22;4394;51.208;8.904;2024-02-28T07:35:45;1.70;99.90
8715;DHT22;4394;51.208;8.904;2024-02-28T07:38:33;1.60;99.90
8715;DHT22;4394;51.208;8.904;2024-02-28T07:41:21;1.60;99.90
8715;DHT22;4394;51.208;8.904;2024-02-28T07:44:11;1.60;99.90
8715;DHT22;4394;51.208;8.904;2024-02-28T07:46:59;1.70;99.90
8715;DHT22;4394;51.208;8.904;2024-02-28T07:49:47;1.70;99.90
8715;DHT22;4394;51.208;8.904;2024-02-28T07:52:35;1.70;99.90
8715;DHT22;4394;51.208;8.904;2024-02-28T07:55:24;1.80;99.90
8715;DHT22;4394;51.208;8.904;2024-02-28T07:58:12;1.80;99.90
8715;DHT22;4394;51.208;8.904;2024-02-28T08:01:01;1.80;99.90
8715;DHT22;4394;51.208;8.904;2024-02-28T08:03:50;1.90;99.90
8715;DHT22;4394;51.208;8.904;2024-02-28T08:06:40;1.90;99.90
8715;DHT22;4394;51.208;8.904;2024-02-28T08:09:28;2.10;99.90
8715;DHT22;4394;51.208;8.904;2024-02-28T08:12:16;2.20;99.90
8715;DHT22;4394;51.208;8.904;2024-02-28T08:15:05;2.20;99.90
8715;DHT22;4394;51.208;8.904;2024-02-28T08:17:55;2.20;99.90
8715;DHT22;4394;51.208;8.904;2024-02-28T08:20:43;2.30;99.90
8715;DHT22;4394;51.208;8.904;2024-02-28T08:23:31;2.30;99.90
8715;DHT22;4394;51.208;8.904;2024-02-28T08:26:19;2.30;99.90
8715;DHT22;4394;51.208;8.904;2024-02-28T08:29:07;2.40;99.90
8715;DHT22;4394;51.208;8.904;2024-02-28T08:31:55;2.50;99.90
8715;DHT22;4394;51.208;8.904;2024-02-28T08:34:45;2.60;99.90
8715;DHT22;4394;51.208;8.904;2024-02-28T08:37:34;2.70;99.90
8715;DHT22;4394;51.208;8.904;2024-02-28T08:40:22;2.90;99.90
8715;DHT22;4394;51.208;8.904;2024-02-28T08:43:10;3.10;99.90
8715;DHT22;4394;51.208;8.904;2024-02-28T08:45:58;3.10;99.90
8715;DHT22;4394;51.208;8.904;2024-02-28T08:48:46;3.20;99.90
8715;DHT22;4394;51.208;8.904;2024-02-28T08:51:36;3.30;99.90
8715;DHT22;4394;51.208;8.904;2024-02-28T08:54:24;3.40;99.90
8715;DHT22;4394;51.208;8.904;2024-02-28T08:57:13;3.40;99.90
8715;DHT22;4394;51.208;8.904;2024-02-28T09:00:01;3.50;99.90
8715;DHT22;4394;51.208;8.904;2024-02-28T09:02:49;3.60;99.90
8715;DHT22;4394;51.208;8.904;2024-02-28T09:05:37;3.70;99.90
8715;DHT22;4394;51.208;8.904;2024-02-28T09:08:27;3.80;99.90
8715;DHT22;4394;51.208;8.904;2024-02-28T09:11:15;3.80;99.90
8715;DHT22;4394;51.208;8.904;2024-02-28T09:14:03;4.00;99.90
8715;DHT22;4394;51.208;8.904;2024-02-28T09:16:51;4.00;99.90
8715;DHT22;4394;51.208;8.904;2024-02-28T09:19:40;4.10;99.90
8715;DHT22;4394;51.208;8.904;2024-02-28T09:22:28;4.10;99.90
8715;DHT22;4394;51.208;8.904;2024-02-28T09:25:18;4.10;99.90
8715;DHT22;4394;51.208;8.904;2024-02-28T09:28:10;4.20;99.90
8715;DHT22;4394;51.208;8.904;2024-02-28T09:31:00;4.30;99.90
8715;DHT22;4394;51.208;8.904;2024-02-28T09:33:51;4.50;99.90
8715;DHT22;4394;51.208;8.904;2024-02-28T09:36:41;4.60;99.90
8715;DHT22;4394;51.208;8.904;2024-02-28T09:39:38;4.70;99.90
8715;DHT22;4394;51.208;8.904;2024-02-28T09:42:27;4.80;99.90
8715;DHT22;4394;51.208;8.904;2024-02-28T09:45:16;4.90;99.90
8715;DHT22;4394;51.208;8.904;2024-02-28T09:48:06;4.80;99.90
8715;DHT22;4394;51.208;8.904;2024-02-28T09:50:55;4.70;99.90
8715;DHT22;4394;51.208;8.904;2024-02-28T09:53:43;4.70;99.90
8715;DHT22;4394;51.208;8.904;2024-02-28T09:56:32;4.70;99.90
8715;DHT22;4394;51.208;8.904;2024-02-28T09:59:24;4.70;99.90
8715;DHT22;4394;51.208;8.904;2024-02-28T10:02:23;4.70;99.90
8715;DHT22;4394;51.208;8.904;2024-02-28T10:05:13;5.00;99.90
8715;DHT22;4394;51.208;8.904;2024-02-28T10:08:02;5.10;99.90
8715;DHT22;4394;51.208;8.904;2024-02-28T10:10:50;5.20;99.90
8715;DHT22;4394;51.208;8.904;2024-02-28T10:13:41;5.40;99.90
8715;DHT22;4394;51.208;8.904;2024-02-28T10:16:31;5.40;99.90
8715;DHT22;4394;51.208;8.904;2024-02-28T10:19:19;5.50;99.90
8715;DHT22;4394;51.208;8.904;2024-02-28T10:22:08;5.60;99.90
8715;DHT22;4394;51.208;8.904;2024-02-28T10:24:57;5.60;99.90
8715;DHT22;4394;51.208;8.904;2024-02-28T10:27:47;5.70;99.90
8715;DHT22;4394;51.208;8.904;2024-02-28T10:30:39;5.70;99.90
8715;DHT22;4394;51.208;8.904;2024-02-28T10:33:28;5.90;99.90
8715;DHT22;4394;51.208;8.904;2024-02-28T10:36:17;5.90;99.90
8715;DHT22;4394;51.208;8.904;2024-02-28T10:39:06;6.00;99.90
8715;DHT22;4394;51.208;8.904;2024-02-28T10:41:57;6.20;99.90
8715;DHT22;4394;51.208;8.904;2024-02-28T10:44:48;6.30;99.90
8715;DHT22;4394;51.208;8.904;2024-02-28T10:47:47;6.50;99.90
8715;DHT22;4394;51.208;8.904;2024-02-28T10:50:39;6.50;99.90
8715;DHT22;4394;51.208;8.904;2024-02-28T10:53:32;6.60;99.90
8715;DHT22;4394;51.208;8.904;2024-02-28T10:56:24;6.80;99.90
8715;DHT22;4394;51.208;8.904;2024-02-28T10:59:13;6.80;99.90
8715;DHT22;4394;51.208;8.904;2024-02-28T11:02:01;6.90;99.90
8715;DHT22;4394;51.208;8.904;2024-02-28T11:04:51;7.00;99.90
8715;DHT22;4394;51.208;8.904;2024-02-28T11:07:42;7.00;99.90
8715;DHT22;4394;51.208;8.904;2024-02-28T11:10:31;7.10;99.90
8715;DHT22;4394;51.208;8.904;2024-02-28T11:13:24;7.10;99.90
8715;DHT22;4394;51.208;8.904;2024-02-28T11:16:12;7.20;99.90
8715;DHT22;4394;51.208;8.904;2024-02-28T11:19:01;7.20;99.90
8715;DHT22;4394;51.208;8.904;2024-02-28T11:21:54;7.30;99.90
8715;DHT22;4394;51.208;8.904;2024-02-28T11:24:44;7.40;99.90
8715;DHT22;4394;51.208;8.904;2024-02-28T11:27:33;7.50;99.90
8715;DHT22;4394;51.208;8.904;2024-02-28T11:30:21;7.60;99.90
8715;DHT22;4394;51.208;8.904;2024-02-28T11:33:09;7.70;99.90
8715;DHT22;4394;51.208;8.904;2024-02-28T11:35:58;7.80;99.90
8715;DHT22;4394;51.208;8.904;2024-02-28T11:38:46;7.90;99.90
8715;DHT22;4394;51.208;8.904;2024-02-28T11:41:35;8.00;99.90
8715;DHT22;4394;51.208;8.904;2024-02-28T11:44:23;8.10;99.90
8715;DHT22;4394;51.208;8.904;2024-02-28T11:47:11;8.30;99.90
8715;DHT22;4394;51.208;8.904;2024-02-28T11:50:01;8.30;99.90
8715;DHT22;4394;51.208;8.904;2024-02-28T11:52:52;8.40;99.90
8715;DHT22;4394;51.208;8.904;2024-02-28T11:55:40;8.60;99.90
8715;DHT22;4394;51.208;8.904;2024-02-28T11:58:30;8.60;99.90
8715;DHT22;4394;51.208;8.904;2024-02-28T12:01:18;8.60;99.90
8715;DHT22;4394;51.208;8.904;2024-02-28T12:04:06;8.90;99.90
8715;DHT22;4394;51.208;8.904;2024-02-28T12:06:57;9.00;99.90
8715;DHT22;4394;51.208;8.904;2024-02-28T12:09:46;9.00;99.90
8715;DHT22;4394;51.208;8.904;2024-02-28T12:12:35;9.10;99.90
8715;DHT22;4394;51.208;8.904;2024-02-28T12:15:24;9.30;99.90
8715;DHT22;4394;51.208;8.904;2024-02-28T12:18:15;9.40;99.90
8715;DHT22;4394;51.208;8.904;2024-02-28T12:21:03;9.50;99.90
8715;DHT22;4394;51.208;8.904;2024-02-28T12:23:51;9.70;99.90
8715;DHT22;4394;51.208;8.904;2024-02-28T12:26:39;9.80;99.90
8715;DHT22;4394;51.208;8.904;2024-02-28T12:29:28;9.80;99.90
8715;DHT22;4394;51.208;8.904;2024-02-28T12:32:17;9.90;99.90
8715;DHT22;4394;51.208;8.904;2024-02-28T12:35:06;10.00;99.90
8715;DHT22;4394;51.208;8.904;2024-02-28T12:37:54;10.10;99.90
8715;DHT22;4394;51.208;8.904;2024-02-28T12:40:42;10.20;99.90
8715;DHT22;4394;51.208;8.904;2024-02-28T12:43:31;10.40;99.90
8715;DHT22;4394;51.208;8.904;2024-02-28T12:46:19;10.50;99.90
8715;DHT22;4394;51.208;8.904;2024-02-28T12:49:09;10.60;99.90
8715;DHT22;4394;51.208;8.904;2024-02-28T12:51:57;10.80;99.90
8715;DHT22;4394;51.208;8.904;2024-02-28T12:54:45;10.80;99.90
8715;DHT22;4394;51.208;8.904;2024-02-28T12:57:33;11.10;99.90
8715;DHT22;4394;51.208;8.904;2024-02-28T13:00:22;11.00;99.90
8715;DHT22;4394;51.208;8.904;2024-02-28T13:03:10;11.00;99.90
8715;DHT22;4394;51.208;8.904;2024-02-28T13:05:59;11.20;99.90
8715;DHT22;4394;51.208;8.904;2024-02-28T13:08:48;11.30;99.90
8715;DHT22;4394;51.208;8.904;2024-02-28T13:11:38;11.30;99.90
8715;DHT22;4394;51.208;8.904;2024-02-28T13:14:27;11.40;99.90
8715;DHT22;4394;51.208;8.904;2024-02-28T13:17:15;11.50;99.90
8715;DHT22;4394;51.208;8.904;2024-02-28T13:20:05;11.60;99.90
8715;DHT22;4394;51.208;8.904;2024-02-28T13:22:55;11.70;99.90
8715;DHT22;4394;51.208;8.904;2024-02-28T13:25:46;11.80;99.90
8715;DHT22;4394;51.208;8.904;2024-02-28T13:28:34;11.80;99.90
8715;DHT22;4394;51.208;8.904;2024-02-28T13:31:23;12.00;99.90
8715;DHT22;4394;51.208;8.904;2024-02-28T13:34:11;12.10;99.90
8715;DHT22;4394;51.208;8.904;2024-02-28T13:36:59;12.10;99.90
8715;DHT22;4394;51.208;8.904;2024-02-28T13:39:49;12.10;99.90
8715;DHT22;4394;51.208;8.904;2024-02-28T13:42:38;12.20;99.90
8715;DHT22;4394;51.208;8.904;2024-02-28T13:45:28;12.20;99.90
8715;DHT22;4394;51.208;8.904;2024-02-28T13:48:17;12.30;99.90
8715;DHT22;4394;51.208;8.904;2024-02-28T13:51:07;12.40;99.90
8715;DHT22;4394;51.208;8.904;2024-02-28T13:53:55;12.50;99.90
8715;DHT22;4394;51.208;8.904;2024-02-28T13:56:45;12.60;99.90
8715;DHT22;4394;51.208;8.904;2024-02-28T13:59:33;12.50;99.90
8715;DHT22;4394;51.208;8.904;2024-02-28T14:02:22;12.60;99.90
8715;DHT22;4394;51.208;8.904;2024-02-28T14:05:13;12.50;99.90
8715;DHT22;4394;51.208;8.904;2024-02-28T14:08:02;12.60;99.90
8715;DHT22;4394;51.208;8.904;2024-02-28T14:10:51;12.60;99.90
8715;DHT22;4394;51.208;8.904;2024-02-28T14:13:41;12.70;99.90
8715;DHT22;4394;51.208;8.904;2024-02-28T14:16:29;12.80;99.90
8715;DHT22;4394;51.208;8.904;2024-02-28T14:19:19;12.80;99.90
8715;DHT22;4394;51.208;8.904;2024-02-28T14:22:07;12.80;99.90
8715;DHT22;4394;51.208;8.904;2024-02-28T14:24:56;12.80;99.90
8715;DHT22;4394;51.208;8.904;2024-02-28T14:27:45;12.80;99.90
8715;DHT22;4394;51.208;8.904;2024-02-28T14:30:34;12.60;99.90
8715;DHT22;4394;51.208;8.904;2024-02-28T14:33:22;12.70;99.90
8715;DHT22;4394;51.208;8.904;2024-02-28T14:36:20;12.80;99.90
8715;DHT22;4394;51.208;8.904;2024-02-28T14:39:08;12.70;99.90
8715;DHT22;4394;51.208;8.904;2024-02-28T14:42:02;12.70;99.90
8715;DHT22;4394;51.208;8.904;2024-02-28T14:44:50;12.60;99.90
8715;DHT22;4394;51.208;8.904;2024-02-28T14:47:40;12.60;99.90
8715;DHT22;4394;51.208;8.904;2024-02-28T14:50:28;12.60;99.90
8715;DHT22;4394;51.208;8.904;2024-02-28T14:53:18;12.60;99.90
8715;DHT22;4394;51.208;8.904;2024-02-28T14:56:08;12.40;99.90
8715;DHT22;4394;51.208;8.904;2024-02-28T14:58:56;12.60;99.90
8715;DHT22;4394;51.208;8.904;2024-02-28T15:01:44;12.50;99.90
8715;DHT22;4394;51.208;8.904;2024-02-28T15:04:32;12.50;99.90
8715;DHT22;4394;51.208;8.904;2024-02-28T15:07:20;12.20;99.90
8715;DHT22;4394;51.208;8.904;2024-02-28T15:10:10;12.10;99.90
8715;DHT22;4394;51.208;8.904;2024-02-28T15:13:00;12.20;99.90
8715;DHT22;4394;51.208;8.904;2024-02-28T15:15:49;12.30;99.90
8715;DHT22;4394;51.208;8.904;2024-02-28T15:18:37;12.40;99.90
8715;DHT22;4394;51.208;8.904;2024-02-28T15:21:25;12.50;99.90
8715;DHT22;4394;51.208;8.904;2024-02-28T15:24:13;12.40;99.90
8715;DHT22;4394;51.208;8.904;2024-02-28T15:27:04;12.40;99.90
8715;DHT22;4394;51.208;8.904;2024-02-28T15:29:52;12.40;99.90
8715;DHT22;4394;51.208;8.904;2024-02-28T15:32:41;12.50;99.90
8715;DHT22;4394;51.208;8.904;2024-02-28T15:35:29;12.20;99.90
8715;DHT22;4394;51.208;8.904;2024-02-28T15:38:17;12.00;99.90
8715;DHT22;4394;51.208;8.904;2024-02-28T15:41:06;11.90;99.90
8715;DHT22;4394;51.208;8.904;2024-02-28T15:43:55;12.00;99.90
8715;DHT22;4394;51.208;8.904;2024-02-28T15:46:43;11.90;99.90
8715;DHT22;4394;51.208;8.904;2024-02-28T15:49:32;11.60;99.90
8715;DHT22;4394;51.208;8.904;2024-02-28T15:52:27;11.40;99.90
8715;DHT22;4394;51.208;8.904;2024-02-28T15:55:15;11.30;99.90
8715;DHT22;4394;51.208;8.904;2024-02-28T15:58:06;11.10;99.90
8715;DHT22;4394;51.208;8.904;2024-02-28T16:00:56;11.00;99.90
8715;DHT22;4394;51.208;8.904;2024-02-28T16:03:44;10.80;99.90
8715;DHT22;4394;51.208;8.904;2024-02-28T16:06:32;10.60;99.90
8715;DHT22;4394;51.208;8.904;2024-02-28T16:09:26;10.50;99.90
8715;DHT22;4394;51.208;8.904;2024-02-28T16:12:14;10.50;99.90
8715;DHT22;4394;51.208;8.904;2024-02-28T16:15:03;10.40;99.90
8715;DHT22;4394;51.208;8.904;2024-02-28T16:17:56;10.30;99.90
8715;DHT22;4394;51.208;8.904;2024-02-28T16:20:44;10.30;99.90
8715;DHT22;4394;51.208;8.904;2024-02-28T16:23:32;10.30;99.90
8715;DHT22;4394;51.208;8.904;2024-02-28T16:26:21;10.30;99.90
8715;DHT22;4394;51.208;8.904;2024-02-28T16:29:09;10.30;99.90
8715;DHT22;4394;51.208;8.904;2024-02-28T16:31:57;10.30;99.90
8715;DHT22;4394;51.208;8.904;2024-02-28T16:34:46;10.40;99.90
8715;DHT22;4394;51.208;8.904;2024-02-28T16:37:34;10.30;99.90
8715;DHT22;4394;51.208;8.904;2024-02-28T16:40:24;10.30;99.90
8715;DHT22;4394;51.208;8.904;2024-02-28T16:43:12;10.20;99.90
8715;DHT22;4394;51.208;8.904;2024-02-28T16:46:00;10.20;99.90
8715;DHT22;4394;51.208;8.904;2024-02-28T16:48:49;10.20;99.90
8715;DHT22;4394;51.208;8.904;2024-02-28T16:51:38;10.20;99.90
8715;DHT22;4394;51.208;8.904;2024-02-28T16:54:29;10.10;99.90
8715;DHT22;4394;51.208;8.904;2024-02-28T16:57:17;10.00;99.90
8715;DHT22;4394;51.208;8.904;2024-02-28T17:00:06;10.00;99.90
8715;DHT22;4394;51.208;8.904;2024-02-28T17:02:56;9.90;99.90
8715;DHT22;4394;51.208;8.904;2024-02-28T17:05:44;9.90;99.90
8715;DHT22;4394;51.208;8.904;2024-02-28T17:08:33;9.80;99.90
8715;DHT22;4394;51.208;8.904;2024-02-28T17:11:21;9.70;99.90
8715;DHT22;4394;51.208;8.904;2024-02-28T17:14:09;9.70;99.90
8715;DHT22;4394;51.208;8.904;2024-02-28T17:16:57;9.60;99.90
8715;DHT22;4394;51.208;8.904;2024-02-28T17:19:46;9.50;99.90
8715;DHT22;4394;51.208;8.904;2024-02-28T17:22:34;9.50;99.90
8715;DHT22;4394;51.208;8.904;2024-02-28T17:25:23;9.40;99.90
8715;DHT22;4394;51.208;8.904;2024-02-28T17:28:11;9.40;99.90
8715;DHT22;4394;51.208;8.904;2024-02-28T17:30:59;9.30;99.90
8715;DHT22;4394;51.208;8.904;2024-02-28T17:33:47;9.30;99.90
8715;DHT22;4394;51.208;8.904;2024-02-28T17:36:37;9.30;99.90
8715;DHT22;4394;51.208;8.904;2024-02-28T17:39:27;9.20;99.90
8715;DHT22;4394;51.208;8.904;2024-02-28T17:42:16;9.20;99.90
8715;DHT22;4394;51.208;8.904;2024-02-28T17:45:05;9.10;99.90
8715;DHT22;4394;51.208;8.904;2024-02-28T17:47:53;9.00;99.90
8715;DHT22;4394;51.208;8.904;2024-02-28T17:50:41;9.00;99.90
8715;DHT22;4394;51.208;8.904;2024-02-28T17:53:29;8.90;99.90
8715;DHT22;4394;51.208;8.904;2024-02-28T17:56:17;8.90;99.90
8715;DHT22;4394;51.208;8.904;2024-02-28T17:59:07;8.90;99.90
8715;DHT22;4394;51.208;8.904;2024-02-28T18:01:55;8.80;99.90
8715;DHT22;4394;51.208;8.904;2024-02-28T18:04:43;8.80;99.90
8715;DHT22;4394;51.208;8.904;2024-02-28T18:07:31;8.80;99.90
8715;DHT22;4394;51.208;8.904;2024-02-28T18:10:19;8.80;99.90
8715;DHT22;4394;51.208;8.904;2024-02-28T18:13:10;8.80;99.90
8715;DHT22;4394;51.208;8.904;2024-02-28T18:15:59;8.80;99.90
8715;DHT22;4394;51.208;8.904;2024-02-28T18:18:48;8.80;99.90
8715;DHT22;4394;51.208;8.904;2024-02-28T18:21:36;8.70;99.90
8715;DHT22;4394;51.208;8.904;2024-02-28T18:24:24;8.70;99.90
8715;DHT22;4394;51.208;8.904;2024-02-28T18:27:12;8.60;99.90
8715;DHT22;4394;51.208;8.904;2024-02-28T18:30:00;8.60;99.90
8715;DHT22;4394;51.208;8.904;2024-02-28T18:32:49;8.50;99.90
8715;DHT22;4394;51.208;8.904;2024-02-28T18:35:38;8.50;99.90